Riverdale, Georgia
Current Conditions -  °F | °C
As of 7:52 PM on Wednesday 17 Dec 2014 (Local Time) from KATL Reporting Station
Broken Clouds Broken Clouds  
Wind Chill: 36°   Ceiling: 25000
Heat Index: 41°   Visibility: 10mi
Dew Point: 36°   Wind: 8mph
Humidity: 82%   Direction: 290°WNW
Pressure: 30.18"   Gusts: NA
Location:  33.57°N, 84.41°W
Report Text: KATL 180052Z 29007KT 10SM FEW200 BKN250 05/02 A3018 RMK AO2 SLP225 T00500022
Loading
Personal Weather Stations






























Interactive Weather Map New forecast layout! Learn more

10-Day Weather Forecast

Advertisements
Track Severe Weather on mobile